sensor_id;sensor_type;location;lat;lon;timestamp;pressure;altitude;pressure_sealevel;temperature;humidity
48606;BME280;8482;54.396;18.590;2023-03-11T00:00:44;98851.84;;;2.17;79.70
48606;BME280;8482;54.396;18.590;2023-03-11T00:03:13;98843.38;;;2.13;79.44
48606;BME280;8482;54.396;18.590;2023-03-11T00:05:43;98836.38;;;2.14;79.88
48606;BME280;8482;54.396;18.590;2023-03-11T00:08:15;98831.97;;;2.14;79.77
48606;BME280;8482;54.396;18.590;2023-03-11T00:10:44;98841.50;;;2.16;80.07
48606;BME280;8482;54.396;18.590;2023-03-11T00:13:13;98844.00;;;2.17;80.02
48606;BME280;8482;54.396;18.590;2023-03-11T00:15:41;98842.22;;;2.18;79.95
48606;BME280;8482;54.396;18.590;2023-03-11T00:18:08;98837.09;;;2.16;79.69
48606;BME280;8482;54.396;18.590;2023-03-11T00:20:37;98840.44;;;2.18;79.60
48606;BME280;8482;54.396;18.590;2023-03-11T00:23:06;98837.09;;;2.16;80.12
48606;BME280;8482;54.396;18.590;2023-03-11T00:25:35;98842.22;;;2.18;80.11
48606;BME280;8482;54.396;18.590;2023-03-11T00:28:02;98833.66;;;2.16;79.85
48606;BME280;8482;54.396;18.590;2023-03-11T00:30:29;98835.19;;;2.18;79.38
48606;BME280;8482;54.396;18.590;2023-03-11T00:32:57;98831.63;;;2.19;80.04
48606;BME280;8482;54.396;18.590;2023-03-11T00:35:30;98829.97;;;2.18;79.57
48606;BME280;8482;54.396;18.590;2023-03-11T00:38:00;98819.63;;;2.17;79.61
48606;BME280;8482;54.396;18.590;2023-03-11T00:40:30;98820.56;;;2.16;79.73
48606;BME280;8482;54.396;18.590;2023-03-11T00:42:56;98820.66;;;2.14;80.04
48606;BME280;8482;54.396;18.590;2023-03-11T00:45:23;98822.34;;;2.15;79.72
48606;BME280;8482;54.396;18.590;2023-03-11T00:47:50;98821.53;;;2.14;79.84
48606;BME280;8482;54.396;18.590;2023-03-11T00:50:23;98813.78;;;2.13;79.30
48606;BME280;8482;54.396;18.590;2023-03-11T00:52:50;98811.41;;;2.10;80.00
48606;BME280;8482;54.396;18.590;2023-03-11T00:55:24;98812.00;;;2.13;80.09
48606;BME280;8482;54.396;18.590;2023-03-11T00:57:54;98812.00;;;2.13;79.55
48606;BME280;8482;54.396;18.590;2023-03-11T01:00:22;98807.00;;;2.10;79.46
48606;BME280;8482;54.396;18.590;2023-03-11T01:02:48;98815.56;;;2.12;80.03
48606;BME280;8482;54.396;18.590;2023-03-11T01:05:15;98814.63;;;2.13;79.67
48606;BME280;8482;54.396;18.590;2023-03-11T01:07:42;98815.56;;;2.12;79.77
48606;BME280;8482;54.396;18.590;2023-03-11T01:10:10;98812.81;;;2.14;79.81
48606;BME280;8482;54.396;18.590;2023-03-11T01:12:36;98819.84;;;2.13;79.61
48606;BME280;8482;54.396;18.590;2023-03-11T01:15:03;98819.84;;;2.13;79.62
48606;BME280;8482;54.396;18.590;2023-03-11T01:17:29;98823.41;;;2.12;79.52
48606;BME280;8482;54.396;18.590;2023-03-11T01:19:55;98819.13;;;2.11;79.58
48606;BME280;8482;54.396;18.590;2023-03-11T01:22:21;98821.75;;;2.11;79.49
48606;BME280;8482;54.396;18.590;2023-03-11T01:24:47;98810.47;;;2.11;79.50
48606;BME280;8482;54.396;18.590;2023-03-11T01:27:13;98816.50;;;2.11;79.44
48606;BME280;8482;54.396;18.590;2023-03-11T01:29:39;98814.72;;;2.12;79.35
48606;BME280;8482;54.396;18.590;2023-03-11T01:32:05;98817.31;;;2.12;79.49
48606;BME280;8482;54.396;18.590;2023-03-11T01:34:32;98819.00;;;2.13;79.37
48606;BME280;8482;54.396;18.590;2023-03-11T01:37:03;98812.22;;;2.10;79.20
48606;BME280;8482;54.396;18.590;2023-03-11T01:39:29;98809.59;;;2.10;79.69
48606;BME280;8482;54.396;18.590;2023-03-11T01:41:55;98814.25;;;2.07;79.58
48606;BME280;8482;54.396;18.590;2023-03-11T01:44:21;98809.75;;;2.09;79.40
48606;BME280;8482;54.396;18.590;2023-03-11T01:49:21;98809.59;;;2.10;79.35
48606;BME280;8482;54.396;18.590;2023-03-11T01:51:53;98805.44;;;2.08;78.81
48606;BME280;8482;54.396;18.590;2023-03-11T01:54:35;98804.38;;;2.10;78.88
48606;BME280;8482;54.396;18.590;2023-03-11T01:57:06;98799.16;;;2.10;79.14
48606;BME280;8482;54.396;18.590;2023-03-11T01:59:42;98786.19;;;2.09;79.36
48606;BME280;8482;54.396;18.590;2023-03-11T02:02:21;98795.59;;;2.11;79.40
48606;BME280;8482;54.396;18.590;2023-03-11T02:04:48;98798.31;;;2.10;79.06
48606;BME280;8482;54.396;18.590;2023-03-11T02:07:15;98794.13;;;2.07;78.68
48606;BME280;8482;54.396;18.590;2023-03-11T02:09:41;98801.16;;;2.07;79.16
48606;BME280;8482;54.396;18.590;2023-03-11T02:12:10;98798.56;;;2.07;79.67
48606;BME280;8482;54.396;18.590;2023-03-11T02:14:42;98804.50;;;2.09;79.29
48606;BME280;8482;54.396;18.590;2023-03-11T02:17:10;98802.84;;;2.08;79.38
48606;BME280;8482;54.396;18.590;2023-03-11T02:20:04;98805.09;;;2.12;79.45
48606;BME280;8482;54.396;18.590;2023-03-11T02:22:39;98801.53;;;2.13;79.64
48606;BME280;8482;54.396;18.590;2023-03-11T02:25:55;98798.78;;;2.15;79.99
48606;BME280;8482;54.396;18.590;2023-03-11T02:28:26;98798.69;;;2.17;79.95
48606;BME280;8482;54.396;18.590;2023-03-11T02:30:55;98810.94;;;2.16;79.59
48606;BME280;8482;54.396;18.590;2023-03-11T02:33:26;98802.84;;;2.19;79.75
48606;BME280;8482;54.396;18.590;2023-03-11T02:35:54;98807.38;;;2.17;79.73
48606;BME280;8482;54.396;18.590;2023-03-11T02:38:19;98797.84;;;2.16;79.69
48606;BME280;8482;54.396;18.590;2023-03-11T02:40:59;98810.22;;;2.14;79.67
48606;BME280;8482;54.396;18.590;2023-03-11T02:43:42;98805.81;;;2.14;79.81
48606;BME280;8482;54.396;18.590;2023-03-11T02:46:16;98812.00;;;2.13;79.34
48606;BME280;8482;54.396;18.590;2023-03-11T02:48:43;98819.94;;;2.12;79.73
48606;BME280;8482;54.396;18.590;2023-03-11T02:51:09;98820.28;;;2.07;79.70
48606;BME280;8482;54.396;18.590;2023-03-11T02:53:45;98820.06;;;2.10;79.89
48606;BME280;8482;54.396;18.590;2023-03-11T02:56:12;98821.25;;;2.06;79.40
48606;BME280;8482;54.396;18.590;2023-03-11T02:58:38;98819.47;;;2.07;79.80
48606;BME280;8482;54.396;18.590;2023-03-11T03:01:03;98817.22;;;2.02;79.76
48606;BME280;8482;54.396;18.590;2023-03-11T03:03:29;98826.47;;;2.06;80.00
48606;BME280;8482;54.396;18.590;2023-03-11T03:05:55;98829.94;;;2.07;79.71
48606;BME280;8482;54.396;18.590;2023-03-11T03:08:21;98842.16;;;2.06;79.83
48606;BME280;8482;54.396;18.590;2023-03-11T03:10:47;98830.75;;;2.07;79.86
48606;BME280;8482;54.396;18.590;2023-03-11T03:13:13;98836.84;;;2.08;79.99
48606;BME280;8482;54.396;18.590;2023-03-11T03:15:39;98838.59;;;2.07;80.05
48606;BME280;8482;54.396;18.590;2023-03-11T03:18:05;98827.53;;;2.04;80.27
48606;BME280;8482;54.396;18.590;2023-03-11T03:20:30;98833.50;;;2.06;79.87
48606;BME280;8482;54.396;18.590;2023-03-11T03:22:56;98840.28;;;2.08;80.17
48606;BME280;8482;54.396;18.590;2023-03-11T03:25:22;98842.78;;;2.10;79.98
48606;BME280;8482;54.396;18.590;2023-03-11T03:27:48;98846.34;;;2.09;80.23
48606;BME280;8482;54.396;18.590;2023-03-11T03:30:15;98848.84;;;2.10;80.04
48606;BME280;8482;54.396;18.590;2023-03-11T03:32:41;98855.88;;;2.10;80.56
48606;BME280;8482;54.396;18.590;2023-03-11T03:35:08;98851.59;;;2.09;80.14
48606;BME280;8482;54.396;18.590;2023-03-11T03:37:36;98849.19;;;2.06;80.24
48606;BME280;8482;54.396;18.590;2023-03-11T03:40:05;98844.78;;;2.06;80.59
48606;BME280;8482;54.396;18.590;2023-03-11T03:42:35;98847.53;;;2.05;80.33
48606;BME280;8482;54.396;18.590;2023-03-11T03:45:04;98846.78;;;2.03;80.38
48606;BME280;8482;54.396;18.590;2023-03-11T03:47:32;98857.25;;;2.03;80.68
48606;BME280;8482;54.396;18.590;2023-03-11T03:49:58;98846.06;;;2.01;80.47
48606;BME280;8482;54.396;18.590;2023-03-11T03:52:24;98854.63;;;2.03;80.73
48606;BME280;8482;54.396;18.590;2023-03-11T03:54:50;98853.81;;;2.02;80.18
48606;BME280;8482;54.396;18.590;2023-03-11T03:57:16;98856.66;;;1.99;80.33
48606;BME280;8482;54.396;18.590;2023-03-11T03:59:42;98854.16;;;1.97;80.07
48606;BME280;8482;54.396;18.590;2023-03-11T04:02:08;98855.94;;;1.97;79.96
48606;BME280;8482;54.396;18.590;2023-03-11T04:04:34;98848.31;;;1.94;79.67
48606;BME280;8482;54.396;18.590;2023-03-11T04:07:03;98859.50;;;1.96;79.46
48606;BME280;8482;54.396;18.590;2023-03-11T04:09:29;98869.00;;;1.97;79.50
48606;BME280;8482;54.396;18.590;2023-03-11T04:11:54;98867.47;;;1.94;79.56
48606;BME280;8482;54.396;18.590;2023-03-11T04:14:20;98867.56;;;1.93;79.23
48606;BME280;8482;54.396;18.590;2023-03-11T04:16:46;98871.84;;;1.94;79.71
48606;BME280;8482;54.396;18.590;2023-03-11T04:19:12;98875.41;;;1.93;79.82
48606;BME280;8482;54.396;18.590;2023-03-11T04:21:38;98867.69;;;1.91;79.71
48606;BME280;8482;54.396;18.590;2023-03-11T04:24:04;98869.47;;;1.91;78.88
48606;BME280;8482;54.396;18.590;2023-03-11T04:26:30;98867.69;;;1.91;79.63
48606;BME280;8482;54.396;18.590;2023-03-11T04:28:56;98871.22;;;1.90;79.54
48606;BME280;8482;54.396;18.590;2023-03-11T04:31:21;98875.75;;;1.88;79.45
48606;BME280;8482;54.396;18.590;2023-03-11T04:33:47;98880.97;;;1.88;79.27
48606;BME280;8482;54.396;18.590;2023-03-11T04:36:13;98885.47;;;1.86;79.66
48606;BME280;8482;54.396;18.590;2023-03-11T04:38:39;98882.75;;;1.88;79.78
48606;BME280;8482;54.396;18.590;2023-03-11T04:41:06;98878.59;;;1.85;79.94
48606;BME280;8482;54.396;18.590;2023-03-11T04:43:34;98888.09;;;1.86;80.13
48606;BME280;8482;54.396;18.590;2023-03-11T04:46:00;98885.47;;;1.86;80.06
48606;BME280;8482;54.396;18.590;2023-03-11T04:48:26;98890.94;;;1.83;80.06
48606;BME280;8482;54.396;18.590;2023-03-11T04:50:52;98885.00;;;1.81;79.86
48606;BME280;8482;54.396;18.590;2023-03-11T04:53:20;98893.66;;;1.81;80.30
48606;BME280;8482;54.396;18.590;2023-03-11T04:55:46;98898.88;;;1.81;80.02
48606;BME280;8482;54.396;18.590;2023-03-11T04:58:13;98892.84;;;1.81;79.45
48606;BME280;8482;54.396;18.590;2023-03-11T05:00:39;98903.28;;;1.81;79.57
48606;BME280;8482;54.396;18.590;2023-03-11T05:03:06;98894.00;;;1.77;79.34
48606;BME280;8482;54.396;18.590;2023-03-11T05:05:31;98905.69;;;1.84;79.65
48606;BME280;8482;54.396;18.590;2023-03-11T05:07:57;98919.59;;;1.84;79.23
48606;BME280;8482;54.396;18.590;2023-03-11T05:10:23;98922.19;;;1.84;78.46
48606;BME280;8482;54.396;18.590;2023-03-11T05:12:50;98924.00;;;1.84;78.50
48606;BME280;8482;54.396;18.590;2023-03-11T05:15:17;98924.94;;;1.83;78.44
48606;BME280;8482;54.396;18.590;2023-03-11T05:17:44;98924.00;;;1.84;78.33
48606;BME280;8482;54.396;18.590;2023-03-11T05:20:11;98909.34;;;1.81;77.87
48606;BME280;8482;54.396;18.590;2023-03-11T05:22:37;98924.09;;;1.82;77.83
48606;BME280;8482;54.396;18.590;2023-03-11T05:25:05;98924.00;;;1.84;77.66
48606;BME280;8482;54.396;18.590;2023-03-11T05:27:31;98926.59;;;1.84;77.33
48606;BME280;8482;54.396;18.590;2023-03-11T05:29:57;98937.06;;;1.84;77.32
48606;BME280;8482;54.396;18.590;2023-03-11T05:32:23;98925.88;;;1.82;77.05
48606;BME280;8482;54.396;18.590;2023-03-11T05:34:49;98936.44;;;1.80;77.51
48606;BME280;8482;54.396;18.590;2023-03-11T05:37:16;98939.16;;;1.79;76.71
48606;BME280;8482;54.396;18.590;2023-03-11T05:39:42;98940.84;;;1.80;77.07
48606;BME280;8482;54.396;18.590;2023-03-11T05:42:08;98939.16;;;1.79;77.11
48606;BME280;8482;54.396;18.590;2023-03-11T05:44:34;98949.50;;;1.80;76.78
48606;BME280;8482;54.396;18.590;2023-03-11T05:47:00;98949.41;;;1.82;76.79
48606;BME280;8482;54.396;18.590;2023-03-11T05:49:26;98962.47;;;1.82;76.07
48606;BME280;8482;54.396;18.590;2023-03-11T05:51:52;98969.47;;;1.81;76.21
48606;BME280;8482;54.396;18.590;2023-03-11T05:54:21;98967.19;;;1.77;75.87
48606;BME280;8482;54.396;18.590;2023-03-11T05:56:47;98975.25;;;1.74;75.96
48606;BME280;8482;54.396;18.590;2023-03-11T05:59:14;98984.88;;;1.73;76.26
48606;BME280;8482;54.396;18.590;2023-03-11T06:01:41;98985.00;;;1.72;76.27
48606;BME280;8482;54.396;18.590;2023-03-11T06:04:08;98995.53;;;1.70;76.24
48606;BME280;8482;54.396;18.590;2023-03-11T06:06:37;99002.66;;;1.68;75.60
48606;BME280;8482;54.396;18.590;2023-03-11T06:09:03;99004.53;;;1.66;76.26
48606;BME280;8482;54.396;18.590;2023-03-11T06:11:29;99005.50;;;1.65;76.05
48606;BME280;8482;54.396;18.590;2023-03-11T06:13:56;99019.59;;;1.62;75.70
48606;BME280;8482;54.396;18.590;2023-03-11T06:16:24;99019.72;;;1.61;76.13
48606;BME280;8482;54.396;18.590;2023-03-11T06:18:51;99020.66;;;1.60;76.04
48606;BME280;8482;54.396;18.590;2023-03-11T06:21:20;99027.75;;;1.58;75.86
48606;BME280;8482;54.396;18.590;2023-03-11T06:23:47;99037.16;;;1.60;75.93
48606;BME280;8482;54.396;18.590;2023-03-11T06:26:17;99031.94;;;1.60;75.74
48606;BME280;8482;54.396;18.590;2023-03-11T06:28:46;99058.19;;;1.59;75.40
48606;BME280;8482;54.396;18.590;2023-03-11T06:31:22;99054.97;;;1.55;75.21
48606;BME280;8482;54.396;18.590;2023-03-11T06:33:50;99046.38;;;1.53;75.43
48606;BME280;8482;54.396;18.590;2023-03-11T06:36:18;99048.13;;;1.52;75.26
48606;BME280;8482;54.396;18.590;2023-03-11T06:38:44;99054.22;;;1.53;75.76
48606;BME280;8482;54.396;18.590;2023-03-11T06:41:15;99058.59;;;1.52;75.65
48606;BME280;8482;54.396;18.590;2023-03-11T06:43:41;99056.94;;;1.51;75.81
48606;BME280;8482;54.396;18.590;2023-03-11T06:46:21;99069.78;;;1.55;75.78
48606;BME280;8482;54.396;18.590;2023-03-11T06:48:48;99068.03;;;1.55;76.04
48606;BME280;8482;54.396;18.590;2023-03-11T06:51:18;99079.31;;;1.56;75.65
48606;BME280;8482;54.396;18.590;2023-03-11T06:53:48;99091.34;;;1.58;75.54
48606;BME280;8482;54.396;18.590;2023-03-11T06:56:14;99084.53;;;1.56;75.49
48606;BME280;8482;54.396;18.590;2023-03-11T06:58:41;99087.06;;;1.57;75.06
48606;BME280;8482;54.396;18.590;2023-03-11T07:01:14;99091.34;;;1.58;75.25
48606;BME280;8482;54.396;18.590;2023-03-11T07:03:41;99093.97;;;1.58;75.04
48606;BME280;8482;54.396;18.590;2023-03-11T07:06:17;99096.56;;;1.58;74.68
48606;BME280;8482;54.396;18.590;2023-03-11T07:08:49;99108.78;;;1.58;74.47
48606;BME280;8482;54.396;18.590;2023-03-11T07:11:22;99113.41;;;1.54;74.21
48606;BME280;8482;54.396;18.590;2023-03-11T07:13:49;99116.94;;;1.53;74.03
48606;BME280;8482;54.396;18.590;2023-03-11T07:16:22;99123.00;;;1.53;74.26
48606;BME280;8482;54.396;18.590;2023-03-11T07:18:51;99132.50;;;1.55;74.54
48606;BME280;8482;54.396;18.590;2023-03-11T07:21:20;99132.31;;;1.58;74.22
48606;BME280;8482;54.396;18.590;2023-03-11T07:23:51;99142.13;;;1.54;73.35
48606;BME280;8482;54.396;18.590;2023-03-11T07:26:17;99141.41;;;1.52;73.24
48606;BME280;8482;54.396;18.590;2023-03-11T07:28:43;99143.06;;;1.53;73.47
48606;BME280;8482;54.396;18.590;2023-03-11T07:31:13;99155.28;;;1.52;73.13
48606;BME280;8482;54.396;18.590;2023-03-11T07:33:39;99158.88;;;1.51;73.49
48606;BME280;8482;54.396;18.590;2023-03-11T07:36:14;99162.19;;;1.53;72.86
48606;BME280;8482;54.396;18.590;2023-03-11T07:38:42;99176.94;;;1.55;72.95
48606;BME280;8482;54.396;18.590;2023-03-11T07:41:10;99171.72;;;1.55;72.75
48606;BME280;8482;54.396;18.590;2023-03-11T07:43:37;99182.91;;;1.57;72.79
48606;BME280;8482;54.396;18.590;2023-03-11T07:46:10;99180.91;;;1.60;72.93
48606;BME280;8482;54.396;18.590;2023-03-11T07:48:38;99181.84;;;1.59;72.70
48606;BME280;8482;54.396;18.590;2023-03-11T07:51:15;99187.00;;;1.61;72.59
48606;BME280;8482;54.396;18.590;2023-03-11T07:53:42;99189.50;;;1.62;72.48
48606;BME280;8482;54.396;18.590;2023-03-11T07:56:11;99194.72;;;1.62;72.51
48606;BME280;8482;54.396;18.590;2023-03-11T07:58:38;99193.78;;;1.63;72.50
48606;BME280;8482;54.396;18.590;2023-03-11T08:01:07;99200.56;;;1.66;72.70
48606;BME280;8482;54.396;18.590;2023-03-11T08:03:34;99211.78;;;1.68;72.23
48606;BME280;8482;54.396;18.590;2023-03-11T08:06:00;99209.16;;;1.68;71.94
48606;BME280;8482;54.396;18.590;2023-03-11T08:08:27;99207.47;;;1.67;72.15
48606;BME280;8482;54.396;18.590;2023-03-11T08:10:53;99220.34;;;1.70;71.83
48606;BME280;8482;54.396;18.590;2023-03-11T08:13:19;99225.50;;;1.72;71.61
48606;BME280;8482;54.396;18.590;2023-03-11T08:15:45;99227.38;;;1.70;71.30
48606;BME280;8482;54.396;18.590;2023-03-11T08:18:11;99239.50;;;1.71;71.48
48606;BME280;8482;54.396;18.590;2023-03-11T08:20:38;99243.13;;;1.68;71.02
48606;BME280;8482;54.396;18.590;2023-03-11T08:23:04;99247.63;;;1.66;71.13
48606;BME280;8482;54.396;18.590;2023-03-11T08:25:30;99254.53;;;1.67;71.48
48606;BME280;8482;54.396;18.590;2023-03-11T08:27:56;99259.06;;;1.65;70.81
48606;BME280;8482;54.396;18.590;2023-03-11T08:30:22;99262.38;;;1.67;71.95
48606;BME280;8482;54.396;18.590;2023-03-11T08:32:48;99263.22;;;1.67;71.30
48606;BME280;8482;54.396;18.590;2023-03-11T08:35:16;99280.69;;;1.67;71.08
48606;BME280;8482;54.396;18.590;2023-03-11T08:37:42;99274.50;;;1.68;71.20
48606;BME280;8482;54.396;18.590;2023-03-11T08:40:08;99278.72;;;1.71;71.25
48606;BME280;8482;54.396;18.590;2023-03-11T08:42:35;99283.72;;;1.74;71.15
48606;BME280;8482;54.396;18.590;2023-03-11T08:45:01;99291.50;;;1.75;71.27
48606;BME280;8482;54.396;18.590;2023-03-11T08:47:27;99292.13;;;1.79;71.49
48606;BME280;8482;54.396;18.590;2023-03-11T08:49:53;99286.25;;;1.75;71.28
48606;BME280;8482;54.396;18.590;2023-03-11T08:52:18;99294.84;;;1.77;70.45
48606;BME280;8482;54.396;18.590;2023-03-11T08:54:44;99300.91;;;1.78;70.44
48606;BME280;8482;54.396;18.590;2023-03-11T08:57:10;99305.31;;;1.77;70.73
48606;BME280;8482;54.396;18.590;2023-03-11T08:59:36;99310.22;;;1.82;70.97
48606;BME280;8482;54.396;18.590;2023-03-11T09:02:02;99328.34;;;1.85;70.98
48606;BME280;8482;54.396;18.590;2023-03-11T09:04:27;99326.66;;;1.84;70.31
48606;BME280;8482;54.396;18.590;2023-03-11T09:06:53;99327.47;;;1.84;70.66
48606;BME280;8482;54.396;18.590;2023-03-11T09:09:19;99330.09;;;1.84;70.90
48606;BME280;8482;54.396;18.590;2023-03-11T09:11:47;99321.19;;;1.87;70.94
48606;BME280;8482;54.396;18.590;2023-03-11T09:14:14;99322.78;;;1.90;70.27
48606;BME280;8482;54.396;18.590;2023-03-11T09:16:40;99334.94;;;1.91;70.06
48606;BME280;8482;54.396;18.590;2023-03-11T09:19:06;99331.28;;;1.93;69.77
48606;BME280;8482;54.396;18.590;2023-03-11T09:21:33;99345.84;;;1.97;69.79
48606;BME280;8482;54.396;18.590;2023-03-11T09:24:00;99362.22;;;1.99;69.91
48606;BME280;8482;54.396;18.590;2023-03-11T09:26:26;99371.44;;;2.05;69.87
48606;BME280;8482;54.396;18.590;2023-03-11T09:28:52;99375.66;;;2.08;69.44
48606;BME280;8482;54.396;18.590;2023-03-11T09:31:18;99372.63;;;2.01;68.68
48606;BME280;8482;54.396;18.590;2023-03-11T09:33:45;99390.00;;;2.02;68.20
48606;BME280;8482;54.396;18.590;2023-03-11T09:36:14;99382.53;;;1.96;68.62
48606;BME280;8482;54.396;18.590;2023-03-11T09:38:42;99397.28;;;1.97;68.09
48606;BME280;8482;54.396;18.590;2023-03-11T09:41:20;99399.91;;;1.97;68.26
48606;BME280;8482;54.396;18.590;2023-03-11T09:44:04;99394.66;;;1.97;68.61
48606;BME280;8482;54.396;18.590;2023-03-11T09:55:20;99415.97;;;2.18;68.95
48606;BME280;8482;54.396;18.590;2023-03-11T09:57:49;99417.53;;;2.21;68.32
48606;BME280;8482;54.396;18.590;2023-03-11T10:00:19;99417.34;;;2.24;68.36
48606;BME280;8482;54.396;18.590;2023-03-11T10:02:49;99421.66;;;2.25;67.46
48606;BME280;8482;54.396;18.590;2023-03-11T10:05:21;99435.56;;;2.25;67.33
48606;BME280;8482;54.396;18.590;2023-03-11T10:08:32;99441.94;;;2.21;67.05
48606;BME280;8482;54.396;18.590;2023-03-11T10:11:32;99444.66;;;2.20;67.07
48606;BME280;8482;54.396;18.590;2023-03-11T10:20:18;99458.78;;;2.17;66.41
48606;BME280;8482;54.396;18.590;2023-03-11T10:25:59;99470.53;;;2.24;66.79
48606;BME280;8482;54.396;18.590;2023-03-11T10:28:50;99478.09;;;2.29;65.92
48606;BME280;8482;54.396;18.590;2023-03-11T10:31:25;99467.69;;;2.27;66.77
48606;BME280;8482;54.396;18.590;2023-03-11T10:34:00;99483.66;;;2.37;66.64
48606;BME280;8482;54.396;18.590;2023-03-11T10:36:58;99486.06;;;2.40;65.60
48606;BME280;8482;54.396;18.590;2023-03-11T10:39:30;99480.09;;;2.38;65.39
48606;BME280;8482;54.396;18.590;2023-03-11T10:42:04;99485.97;;;2.42;64.35
48606;BME280;8482;54.396;18.590;2023-03-11T10:44:36;99495.28;;;2.46;64.27
48606;BME280;8482;54.396;18.590;2023-03-11T10:47:03;99499.41;;;2.50;63.38
48606;BME280;8482;54.396;18.590;2023-03-11T10:49:30;99487.34;;;2.48;63.07
48606;BME280;8482;54.396;18.590;2023-03-11T10:51:57;99497.16;;;2.44;62.79
48606;BME280;8482;54.396;18.590;2023-03-11T10:54:28;99506.91;;;2.42;62.58
48606;BME280;8482;54.396;18.590;2023-03-11T10:57:26;99507.84;;;2.41;62.36
48606;BME280;8482;54.396;18.590;2023-03-11T10:59:55;99510.66;;;2.38;62.48
48606;BME280;8482;54.396;18.590;2023-03-11T11:02:26;99519.34;;;2.38;62.78
48606;BME280;8482;54.396;18.590;2023-03-11T11:07:41;99522.34;;;2.32;61.72
48606;BME280;8482;54.396;18.590;2023-03-11T11:18:18;99544.13;;;2.33;62.36
48606;BME280;8482;54.396;18.590;2023-03-11T11:23:40;99552.81;;;2.33;62.44
48606;BME280;8482;54.396;18.590;2023-03-11T11:26:16;99562.16;;;2.37;62.46
48606;BME280;8482;54.396;18.590;2023-03-11T11:28:43;99555.16;;;2.38;62.19
48606;BME280;8482;54.396;18.590;2023-03-11T11:31:24;99560.19;;;2.41;62.64
48606;BME280;8482;54.396;18.590;2023-03-11T11:33:52;99561.13;;;2.40;62.45
48606;BME280;8482;54.396;18.590;2023-03-11T11:36:24;99576.56;;;2.44;62.00
48606;BME280;8482;54.396;18.590;2023-03-11T11:38:52;99566.78;;;2.47;62.03
48606;BME280;8482;54.396;18.590;2023-03-11T11:41:24;99571.94;;;2.48;62.08
48606;BME280;8482;54.396;18.590;2023-03-11T11:46:41;99587.66;;;2.48;60.79
48606;BME280;8482;54.396;18.590;2023-03-11T11:49:33;99576.88;;;2.53;60.28
48606;BME280;8482;54.396;18.590;2023-03-11T11:52:14;99568.94;;;2.54;60.14
48606;BME280;8482;54.396;18.590;2023-03-11T11:55:06;99589.00;;;2.68;60.42
48606;BME280;8482;54.396;18.590;2023-03-11T11:57:39;99580.09;;;2.71;60.04
48606;BME280;8482;54.396;18.590;2023-03-11T12:00:33;99590.38;;;2.74;59.09
48606;BME280;8482;54.396;18.590;2023-03-11T12:03:49;99590.19;;;2.77;58.54
48606;BME280;8482;54.396;18.590;2023-03-11T12:06:34;99601.19;;;2.82;58.41
48606;BME280;8482;54.396;18.590;2023-03-11T12:09:34;99607.72;;;2.89;58.93
48606;BME280;8482;54.396;18.590;2023-03-11T12:15:14;99606.84;;;2.89;58.40
48606;BME280;8482;54.396;18.590;2023-03-11T12:17:43;99621.81;;;2.87;57.42
48606;BME280;8482;54.396;18.590;2023-03-11T12:23:21;99630.28;;;2.78;57.31
48606;BME280;8482;54.396;18.590;2023-03-11T12:26:28;99635.81;;;2.73;57.61
48606;BME280;8482;54.396;18.590;2023-03-11T12:29:33;99639.50;;;2.70;57.49
48606;BME280;8482;54.396;18.590;2023-03-11T12:32:01;99644.50;;;2.73;58.71
48606;BME280;8482;54.396;18.590;2023-03-11T12:34:33;99645.38;;;2.74;58.62
48606;BME280;8482;54.396;18.590;2023-03-11T12:37:01;99648.44;;;2.81;58.46
48606;BME280;8482;54.396;18.590;2023-03-11T12:39:36;99659.44;;;2.86;58.30
48606;BME280;8482;54.396;18.590;2023-03-11T12:42:23;99659.34;;;2.87;57.81
48606;BME280;8482;54.396;18.590;2023-03-11T12:45:49;99661.78;;;2.90;58.75
48606;BME280;8482;54.396;18.590;2023-03-11T12:48:53;99671.28;;;2.91;59.06
48606;BME280;8482;54.396;18.590;2023-03-11T12:54:35;99670.47;;;2.91;59.43
48606;BME280;8482;54.396;18.590;2023-03-11T13:03:31;99693.28;;;2.89;59.09
48606;BME280;8482;54.396;18.590;2023-03-11T13:08:49;99697.41;;;2.93;59.47
48606;BME280;8482;54.396;18.590;2023-03-11T13:14:33;99700.28;;;3.03;59.76
48606;BME280;8482;54.396;18.590;2023-03-11T13:17:26;99697.88;;;3.00;60.07
48606;BME280;8482;54.396;18.590;2023-03-11T13:19:57;99710.41;;;2.95;58.80
48606;BME280;8482;54.396;18.590;2023-03-11T13:25:35;99722.38;;;2.99;59.26
48606;BME280;8482;54.396;18.590;2023-03-11T13:34:15;99727.81;;;2.96;58.68
48606;BME280;8482;54.396;18.590;2023-03-11T13:37:19;99734.09;;;2.93;58.60
48606;BME280;8482;54.396;18.590;2023-03-11T13:42:55;99734.91;;;2.94;58.68
48606;BME280;8482;54.396;18.590;2023-03-11T13:45:35;99753.25;;;2.94;58.85
48606;BME280;8482;54.396;18.590;2023-03-11T13:48:15;99759.16;;;2.97;58.59
48606;BME280;8482;54.396;18.590;2023-03-11T13:51:30;99761.56;;;3.00;58.06
48606;BME280;8482;54.396;18.590;2023-03-11T13:53:56;99764.84;;;3.04;58.09
48606;BME280;8482;54.396;18.590;2023-03-11T13:56:32;99768.88;;;3.10;57.65
48606;BME280;8482;54.396;18.590;2023-03-11T13:59:28;99772.94;;;3.14;57.89
48606;BME280;8482;54.396;18.590;2023-03-11T14:02:24;99776.78;;;3.22;57.53
48606;BME280;8482;54.396;18.590;2023-03-11T14:05:02;99787.06;;;3.26;56.61
48606;BME280;8482;54.396;18.590;2023-03-11T14:07:33;99785.09;;;3.29;56.19
48606;BME280;8482;54.396;18.590;2023-03-11T14:10:29;99799.31;;;3.25;55.92
48606;BME280;8482;54.396;18.590;2023-03-11T14:13:17;99807.44;;;3.35;56.69
48606;BME280;8482;54.396;18.590;2023-03-11T14:15:52;99815.59;;;3.58;55.51
48606;BME280;8482;54.396;18.590;2023-03-11T14:18:37;99808.59;;;3.58;54.77
48606;BME280;8482;54.396;18.590;2023-03-11T14:21:11;99815.59;;;3.58;54.71
48606;BME280;8482;54.396;18.590;2023-03-11T14:23:51;99818.91;;;4.14;54.47
48606;BME280;8482;54.396;18.590;2023-03-11T14:26:22;99826.16;;;4.63;53.14
48606;BME280;8482;54.396;18.590;2023-03-11T14:29:08;99824.41;;;5.13;51.10
48606;BME280;8482;54.396;18.590;2023-03-11T14:31:39;99828.28;;;5.20;50.40
48606;BME280;8482;54.396;18.590;2023-03-11T14:34:16;99827.16;;;5.12;50.54
48606;BME280;8482;54.396;18.590;2023-03-11T14:36:48;99832.47;;;5.23;49.79
48606;BME280;8482;54.396;18.590;2023-03-11T14:39:35;99836.66;;;5.26;49.23
48606;BME280;8482;54.396;18.590;2023-03-11T14:42:20;99835.16;;;5.47;48.97